MST,Max TemperatureF,Mean TemperatureF,Min TemperatureF,Max Dew PointF,MeanDew PointF,Min DewpointF,Max Humidity, Mean Humidity, Min Humidity, Max Sea Level PressureIn, Mean Sea Level PressureIn, Min Sea Level PressureIn, Max VisibilityMiles, Mean VisibilityMiles, Min VisibilityMiles, Max Wind SpeedMPH, Mean Wind SpeedMPH, Max Gust SpeedMPH,PrecipitationIn, CloudCover, Events, WindDirDegrees
2012-11-1,82,62,42,23,17,10,40,22,7,30.05,29.94,29.83,10,10,10,15,6,23,0.00,0,,249
2012-11-2,82,65,48,25,17,3,35,20,5,29.96,29.85,29.76,10,10,10,14,10,,0.00,0,,305
2012-11-3,64,53,42,34,31,28,63,46,29,30.19,30.11,29.99,10,10,10,12,8,17,0.00,0,,63
2012-11-4,73,56,39,35,27,19,70,40,14,30.17,30.09,29.99,10,10,10,8,2,,0.00,0,,331
2012-11-5,66,52,37,32,25,21,53,34,23,30.25,30.14,30.06,10,10,10,9,6,,0.00,0,,295
2012-11-6,77,60,42,27,25,22,47,32,15,30.17,30.10,30.04,10,10,10,10,6,,0.00,0,,22
2012-11-7,82,60,39,29,24,18,55,29,10,30.12,29.96,29.82,10,10,10,23,9,30,0.00,0,,243
2012-11-8,80,65,50,27,21,15,30,20,11,29.87,29.79,29.73,10,10,10,21,12,30,0.00,0,,243
2012-11-9,79,65,51,39,31,24,51,31,17,29.86,29.71,29.63,10,10,8,33,16,43,0.00,0,,235
2012-11-10,73,58,43,47,33,13,74,36,19,29.72,29.61,29.47,10,7,1,50,22,75,0.00,3,Rain,235
2012-11-11,51,40,28,19,11,-8,54,33,9,30.29,30.00,29.75,10,10,10,24,12,32,0.00,2,,288
2012-11-12,54,36,19,3,-4,-10,40,21,8,30.45,30.38,30.31,10,10,10,13,6,,0.00,0,,227
2012-11-13,60,44,28,11,5,-5,31,21,11,30.33,30.22,30.09,10,10,10,24,10,31,0.00,0,,221
2012-11-14,66,46,27,14,8,2,36,23,9,30.36,30.19,30.06,10,10,10,23,7,31,0.00,0,,242
2012-11-15,64,52,37,27,19,8,54,31,17,30.33,30.19,30.03,10,10,10,22,12,28,0.00,0,,9
2012-11-16,63,46,30,26,22,17,61,40,17,30.35,30.25,30.16,10,10,10,12,6,,0.00,0,,219
2012-11-17,64,53,42,43,37,28,83,55,34,30.16,30.09,30.01,10,10,9,21,13,25,0.00,0,,219
2012-11-18,71,60,48,46,39,33,77,54,26,30.01,29.96,29.88,10,10,10,24,12,30,0.00,0,,227
2012-11-19,71,54,37,36,24,15,76,39,13,30.19,30.11,30.00,10,10,10,13,8,,0.00,0,,246
2012-11-20,72,51,30,19,14,5,50,27,8,30.26,30.17,30.09,10,10,10,15,6,,0.00,0,,240
2012-11-21,72,57,42,40,31,17,61,37,24,30.14,30.02,29.89,10,10,10,24,12,30,0.00,0,,231
2012-11-22,75,60,44,39,26,13,61,34,9,30.33,30.00,29.85,10,10,10,22,12,30,0.00,0,,12
2012-11-23,55,44,33,23,15,8,55,35,17,30.56,30.45,30.34,10,10,10,12,7,,0.00,0,,254
2012-11-24,73,52,30,19,14,10,42,26,12,30.33,30.05,29.86,10,10,10,22,10,25,0.00,0,,234
2012-11-25,70,54,37,14,10,7,37,21,9,29.92,29.82,29.74,10,10,10,13,8,,0.00,0,,282
2012-11-26,54,43,32,28,21,10,67,45,24,30.40,30.16,29.81,10,10,10,22,11,30,0.00,2,,60
2012-11-27,68,46,25,27,23,18,81,51,17,30.42,30.27,30.12,10,10,9,17,6,,0.00,0,,223
2012-11-28,68,48,28,24,14,6,54,29,10,30.24,30.12,30.01,10,10,10,15,7,,0.00,0,,251
2012-11-29,75,60,44,24,20,16,43,27,12,30.01,29.95,29.86,10,10,10,14,10,,0.00,0,,248
2012-11-30,75,58,42,25,20,15,35,23,12,30.01,29.90,29.83,10,10,10,18,10,,0.00,0,,260